sensor_id;sensor_type;location;lat;lon;timestamp;pressure;altitude;pressure_sealevel;temperature;humidity
36242;BME280;22283;42.748;12.732;2023-04-26T00:03:59;97630.41;;;5.62;100.00
36242;BME280;22283;42.748;12.732;2023-04-26T00:08:59;97640.91;;;5.62;100.00
36242;BME280;22283;42.748;12.732;2023-04-26T00:14:00;97629.00;;;5.56;100.00
36242;BME280;22283;42.748;12.732;2023-04-26T00:19:01;97624.59;;;5.57;100.00
36242;BME280;22283;42.748;12.732;2023-04-26T00:24:03;97643.75;;;5.59;100.00
36242;BME280;22283;42.748;12.732;2023-04-26T00:29:05;97646.81;;;5.65;100.00
36242;BME280;22283;42.748;12.732;2023-04-26T00:34:06;97642.41;;;5.52;100.00
36242;BME280;22283;42.748;12.732;2023-04-26T00:39:07;97645.59;;;5.57;100.00
36242;BME280;22283;42.748;12.732;2023-04-26T00:44:08;97649.91;;;5.58;100.00
36242;BME280;22283;42.748;12.732;2023-04-26T00:49:15;97640.06;;;5.47;100.00
36242;BME280;22283;42.748;12.732;2023-04-26T00:54:17;97651.41;;;5.48;100.00
36242;BME280;22283;42.748;12.732;2023-04-26T00:59:20;97649.91;;;5.43;100.00
36242;BME280;22283;42.748;12.732;2023-04-26T01:04:20;97650.53;;;5.33;100.00
36242;BME280;22283;42.748;12.732;2023-04-26T01:09:25;97642.94;;;5.28;100.00
36242;BME280;22283;42.748;12.732;2023-04-26T01:14:27;97643.22;;;5.24;100.00
36242;BME280;22283;42.748;12.732;2023-04-26T01:19:28;97644.06;;;5.24;100.00
36242;BME280;22283;42.748;12.732;2023-04-26T01:24:29;97636.38;;;5.07;100.00
36242;BME280;22283;42.748;12.732;2023-04-26T01:29:31;97644.91;;;4.94;100.00
36242;BME280;22283;42.748;12.732;2023-04-26T01:34:32;97647.75;;;4.91;100.00
36242;BME280;22283;42.748;12.732;2023-04-26T01:39:34;97647.91;;;4.88;100.00
36242;BME280;22283;42.748;12.732;2023-04-26T01:44:36;97635.41;;;4.78;100.00
36242;BME280;22283;42.748;12.732;2023-04-26T01:49:36;97647.69;;;4.77;100.00
36242;BME280;22283;42.748;12.732;2023-04-26T01:54:37;97646.16;;;4.73;100.00
36242;BME280;22283;42.748;12.732;2023-04-26T01:59:38;97640.84;;;4.59;100.00
36242;BME280;22283;42.748;12.732;2023-04-26T02:04:39;97656.16;;;4.51;100.00
36242;BME280;22283;42.748;12.732;2023-04-26T02:09:39;97650.66;;;4.55;100.00
36242;BME280;22283;42.748;12.732;2023-04-26T02:14:42;97648.13;;;4.54;100.00
36242;BME280;22283;42.748;12.732;2023-04-26T02:19:43;97648.84;;;4.41;100.00
36242;BME280;22283;42.748;12.732;2023-04-26T02:24:45;97663.19;;;4.50;100.00
36242;BME280;22283;42.748;12.732;2023-04-26T02:29:46;97652.13;;;4.29;100.00
36242;BME280;22283;42.748;12.732;2023-04-26T02:34:46;97670.09;;;4.35;100.00
36242;BME280;22283;42.748;12.732;2023-04-26T02:39:50;97664.88;;;4.35;100.00
36242;BME280;22283;42.748;12.732;2023-04-26T02:44:51;97680.34;;;4.24;100.00
36242;BME280;22283;42.748;12.732;2023-04-26T02:49:52;97684.41;;;4.14;100.00
36242;BME280;22283;42.748;12.732;2023-04-26T02:54:53;97681.91;;;3.95;100.00
36242;BME280;22283;42.748;12.732;2023-04-26T02:59:54;97683.81;;;4.09;100.00
36242;BME280;22283;42.748;12.732;2023-04-26T03:04:55;97684.66;;;4.09;100.00
36242;BME280;22283;42.748;12.732;2023-04-26T03:09:56;97683.66;;;4.12;100.00
36242;BME280;22283;42.748;12.732;2023-04-26T03:14:57;97686.00;;;4.01;100.00
36242;BME280;22283;42.748;12.732;2023-04-26T03:19:59;97687.66;;;3.86;100.00
36242;BME280;22283;42.748;12.732;2023-04-26T03:25:00;97699.13;;;3.83;100.00
36242;BME280;22283;42.748;12.732;2023-04-26T03:30:02;97703.31;;;3.70;100.00
36242;BME280;22283;42.748;12.732;2023-04-26T03:35:05;97703.13;;;3.57;100.00
36242;BME280;22283;42.748;12.732;2023-04-26T03:40:06;97715.19;;;3.42;100.00
36242;BME280;22283;42.748;12.732;2023-04-26T03:45:10;97697.97;;;3.38;100.00
36242;BME280;22283;42.748;12.732;2023-04-26T03:50:11;97722.56;;;3.52;100.00
36242;BME280;22283;42.748;12.732;2023-04-26T03:55:12;97722.56;;;3.69;100.00
36242;BME280;22283;42.748;12.732;2023-04-26T04:00:14;97725.94;;;3.71;100.00
36242;BME280;22283;42.748;12.732;2023-04-26T04:05:17;97716.53;;;3.84;100.00
36242;BME280;22283;42.748;12.732;2023-04-26T04:10:18;97726.81;;;3.87;100.00
36242;BME280;22283;42.748;12.732;2023-04-26T04:15:20;97726.06;;;3.85;100.00
36242;BME280;22283;42.748;12.732;2023-04-26T04:20:22;97730.69;;;3.80;100.00
36242;BME280;22283;42.748;12.732;2023-04-26T04:25:23;97729.31;;;3.73;100.00
36242;BME280;22283;42.748;12.732;2023-04-26T04:30:27;97734.47;;;3.75;100.00
36242;BME280;22283;42.748;12.732;2023-04-26T04:35:30;97749.13;;;3.94;100.00
36242;BME280;22283;42.748;12.732;2023-04-26T04:40:33;97742.69;;;3.84;100.00
36242;BME280;22283;42.748;12.732;2023-04-26T04:45:35;97759.09;;;4.04;100.00
36242;BME280;22283;42.748;12.732;2023-04-26T04:50:39;97747.41;;;5.80;100.00
36242;BME280;22283;42.748;12.732;2023-04-26T04:55:41;97747.31;;;7.49;100.00
36242;BME280;22283;42.748;12.732;2023-04-26T05:00:43;97752.72;;;9.10;93.21
36242;BME280;22283;42.748;12.732;2023-04-26T05:05:56;97764.94;;;10.17;83.11
36242;BME280;22283;42.748;12.732;2023-04-26T05:10:58;97761.25;;;10.87;74.45
36242;BME280;22283;42.748;12.732;2023-04-26T05:15:59;97774.38;;;11.20;77.46
36242;BME280;22283;42.748;12.732;2023-04-26T05:20:59;97772.56;;;12.48;66.03
36242;BME280;22283;42.748;12.732;2023-04-26T05:26:03;97783.56;;;12.22;68.77
36242;BME280;22283;42.748;12.732;2023-04-26T05:31:24;97788.13;;;11.90;69.11
36242;BME280;22283;42.748;12.732;2023-04-26T05:36:51;97789.50;;;12.97;65.88
36242;BME280;22283;42.748;12.732;2023-04-26T05:41:52;97796.25;;;13.20;61.67
36242;BME280;22283;42.748;12.732;2023-04-26T05:46:53;97778.91;;;13.16;60.88
36242;BME280;22283;42.748;12.732;2023-04-26T05:51:54;97786.66;;;12.79;60.85
36242;BME280;22283;42.748;12.732;2023-04-26T05:56:55;97786.97;;;12.95;60.88
36242;BME280;22283;42.748;12.732;2023-04-26T06:01:56;97795.06;;;13.44;59.28
36242;BME280;22283;42.748;12.732;2023-04-26T06:06:57;97799.69;;;13.81;58.60
36242;BME280;22283;42.748;12.732;2023-04-26T06:11:58;97791.56;;;13.92;57.00
36242;BME280;22283;42.748;12.732;2023-04-26T06:16:59;97795.41;;;14.36;55.05
36242;BME280;22283;42.748;12.732;2023-04-26T06:22:01;97806.03;;;14.56;54.00
36242;BME280;22283;42.748;12.732;2023-04-26T06:27:02;97813.13;;;14.18;55.08
36242;BME280;22283;42.748;12.732;2023-04-26T06:32:04;97815.91;;;13.48;55.85
36242;BME280;22283;42.748;12.732;2023-04-26T06:37:04;97821.94;;;13.10;58.23
36242;BME280;22283;42.748;12.732;2023-04-26T06:42:06;97828.97;;;13.11;57.61
36242;BME280;22283;42.748;12.732;2023-04-26T06:47:23;97834.88;;;13.24;57.53
36242;BME280;22283;42.748;12.732;2023-04-26T06:52:24;97837.88;;;13.60;58.87
36242;BME280;22283;42.748;12.732;2023-04-26T06:57:25;97839.16;;;13.95;57.35
36242;BME280;22283;42.748;12.732;2023-04-26T07:02:26;97828.81;;;13.92;56.45
36242;BME280;22283;42.748;12.732;2023-04-26T07:07:27;97848.06;;;14.62;55.53
36242;BME280;22283;42.748;12.732;2023-04-26T07:12:27;97842.16;;;14.68;55.59
36242;BME280;22283;42.748;12.732;2023-04-26T07:17:28;97835.75;;;14.51;53.99
36242;BME280;22283;42.748;12.732;2023-04-26T07:22:29;97843.06;;;14.30;55.63
36242;BME280;22283;42.748;12.732;2023-04-26T07:27:30;97829.38;;;13.76;55.07
36242;BME280;22283;42.748;12.732;2023-04-26T07:32:31;97834.84;;;13.74;56.96
36242;BME280;22283;42.748;12.732;2023-04-26T07:37:31;97839.72;;;13.89;56.02
36242;BME280;22283;42.748;12.732;2023-04-26T07:42:32;97840.84;;;14.15;56.76
36242;BME280;22283;42.748;12.732;2023-04-26T07:47:33;97843.78;;;14.22;57.07
36242;BME280;22283;42.748;12.732;2023-04-26T07:52:33;97829.75;;;14.30;56.80
36242;BME280;22283;42.748;12.732;2023-04-26T07:57:34;97855.38;;;14.31;55.90
36242;BME280;22283;42.748;12.732;2023-04-26T08:02:35;97850.75;;;14.13;58.66
36242;BME280;22283;42.748;12.732;2023-04-26T08:07:36;97855.91;;;14.44;59.13
36242;BME280;22283;42.748;12.732;2023-04-26T08:12:37;97863.22;;;14.42;57.27
36242;BME280;22283;42.748;12.732;2023-04-26T08:17:38;97867.94;;;14.67;57.95
36242;BME280;22283;42.748;12.732;2023-04-26T08:22:39;97878.63;;;14.58;58.49
36242;BME280;22283;42.748;12.732;2023-04-26T08:27:40;97872.16;;;14.60;59.74
36242;BME280;22283;42.748;12.732;2023-04-26T08:32:40;97870.22;;;14.33;60.45
36242;BME280;22283;42.748;12.732;2023-04-26T08:37:41;97872.72;;;14.73;61.53
36242;BME280;22283;42.748;12.732;2023-04-26T08:42:42;97872.13;;;14.80;58.98
36242;BME280;22283;42.748;12.732;2023-04-26T08:47:47;97881.13;;;15.06;62.21
36242;BME280;22283;42.748;12.732;2023-04-26T08:52:49;97882.53;;;15.38;61.99
36242;BME280;22283;42.748;12.732;2023-04-26T08:57:50;97878.09;;;15.01;53.72
36242;BME280;22283;42.748;12.732;2023-04-26T09:02:51;97883.53;;;14.99;55.88
36242;BME280;22283;42.748;12.732;2023-04-26T09:07:56;97874.81;;;15.07;56.17
36242;BME280;22283;42.748;12.732;2023-04-26T09:12:57;97879.59;;;15.04;55.58
36242;BME280;22283;42.748;12.732;2023-04-26T09:18:21;97872.88;;;15.09;56.79
36242;BME280;22283;42.748;12.732;2023-04-26T09:23:22;97874.16;;;15.33;55.99
36242;BME280;22283;42.748;12.732;2023-04-26T09:28:23;97877.47;;;15.62;55.21
36242;BME280;22283;42.748;12.732;2023-04-26T09:33:26;97884.25;;;15.84;55.41
36242;BME280;22283;42.748;12.732;2023-04-26T09:38:27;97859.50;;;15.92;54.72
36242;BME280;22283;42.748;12.732;2023-04-26T09:43:36;97865.94;;;16.07;53.37
36242;BME280;22283;42.748;12.732;2023-04-26T09:48:37;97865.25;;;16.23;54.40
36242;BME280;22283;42.748;12.732;2023-04-26T09:53:40;97867.97;;;16.49;54.88
36242;BME280;22283;42.748;12.732;2023-04-26T10:03:51;97855.78;;;16.72;55.02
36242;BME280;22283;42.748;12.732;2023-04-26T10:08:52;97853.72;;;17.18;52.31
36242;BME280;22283;42.748;12.732;2023-04-26T10:13:53;97853.78;;;17.35;53.72
36242;BME280;22283;42.748;12.732;2023-04-26T10:18:55;97837.63;;;17.61;50.78
36242;BME280;22283;42.748;12.732;2023-04-26T10:23:55;97837.03;;;17.83;49.40
36242;BME280;22283;42.748;12.732;2023-04-26T10:28:58;97831.53;;;18.09;49.12
36242;BME280;22283;42.748;12.732;2023-04-26T10:34:19;97839.22;;;18.21;46.01
36242;BME280;22283;42.748;12.732;2023-04-26T10:39:20;97827.34;;;18.39;45.27
36242;BME280;22283;42.748;12.732;2023-04-26T10:44:39;97819.00;;;18.18;40.63
36242;BME280;22283;42.748;12.732;2023-04-26T10:49:44;97812.81;;;18.34;40.92
36242;BME280;22283;42.748;12.732;2023-04-26T11:05:10;97796.66;;;18.83;36.75
36242;BME280;22283;42.748;12.732;2023-04-26T11:10:21;97793.56;;;19.02;36.69
36242;BME280;22283;42.748;12.732;2023-04-26T11:15:23;97793.31;;;18.64;35.61
36242;BME280;22283;42.748;12.732;2023-04-26T11:20:33;97793.31;;;18.64;34.04
36242;BME280;22283;42.748;12.732;2023-04-26T11:25:33;97787.31;;;18.71;34.05
36242;BME280;22283;42.748;12.732;2023-04-26T11:30:34;97784.88;;;18.92;32.77
36242;BME280;22283;42.748;12.732;2023-04-26T11:35:37;97785.31;;;19.12;35.01
36242;BME280;22283;42.748;12.732;2023-04-26T11:40:39;97786.16;;;19.04;32.80
36242;BME280;22283;42.748;12.732;2023-04-26T11:45:41;97785.06;;;19.30;32.67
36242;BME280;22283;42.748;12.732;2023-04-26T11:50:42;97775.69;;;19.26;32.65
36242;BME280;22283;42.748;12.732;2023-04-26T11:55:43;97770.44;;;19.40;32.90
36242;BME280;22283;42.748;12.732;2023-04-26T12:00:54;97779.41;;;19.25;31.29
36242;BME280;22283;42.748;12.732;2023-04-26T12:05:56;97776.75;;;19.16;30.01
36242;BME280;22283;42.748;12.732;2023-04-26T12:11:01;97772.78;;;19.04;30.24
36242;BME280;22283;42.748;12.732;2023-04-26T12:16:07;97778.34;;;19.34;29.57
36242;BME280;22283;42.748;12.732;2023-04-26T12:21:08;97758.63;;;19.19;30.03
36242;BME280;22283;42.748;12.732;2023-04-26T12:26:09;97769.22;;;19.12;29.58
36242;BME280;22283;42.748;12.732;2023-04-26T12:31:11;97766.72;;;19.10;30.60
36242;BME280;22283;42.748;12.732;2023-04-26T12:36:12;97761.91;;;19.37;30.48
36242;BME280;22283;42.748;12.732;2023-04-26T12:41:13;97756.25;;;19.24;29.75
36242;BME280;22283;42.748;12.732;2023-04-26T12:46:14;97761.13;;;19.20;30.04
36242;BME280;22283;42.748;12.732;2023-04-26T12:51:14;97761.91;;;19.37;30.30
36242;BME280;22283;42.748;12.732;2023-04-26T12:56:18;97774.03;;;19.25;33.52
36242;BME280;22283;42.748;12.732;2023-04-26T13:01:19;97756.69;;;19.35;31.95
36242;BME280;22283;42.748;12.732;2023-04-26T13:06:20;97756.22;;;19.63;31.21
36242;BME280;22283;42.748;12.732;2023-04-26T13:11:20;97752.38;;;19.57;30.09
36242;BME280;22283;42.748;12.732;2023-04-26T13:16:21;97765.78;;;19.57;30.37
36242;BME280;22283;42.748;12.732;2023-04-26T13:21:22;97765.84;;;19.49;29.54
36242;BME280;22283;42.748;12.732;2023-04-26T13:26:23;97757.25;;;19.54;30.29
36242;BME280;22283;42.748;12.732;2023-04-26T13:31:24;97744.16;;;19.82;29.62
36242;BME280;22283;42.748;12.732;2023-04-26T13:36:25;97754.34;;;19.63;29.20
36242;BME280;22283;42.748;12.732;2023-04-26T13:41:25;97747.16;;;19.64;28.67
36242;BME280;22283;42.748;12.732;2023-04-26T13:46:29;97752.09;;;19.52;28.23
36242;BME280;22283;42.748;12.732;2023-04-26T13:51:29;97745.25;;;19.73;28.54
36242;BME280;22283;42.748;12.732;2023-04-26T13:56:32;97744.03;;;19.98;26.88
36242;BME280;22283;42.748;12.732;2023-04-26T14:01:33;97744.84;;;19.99;28.36
36242;BME280;22283;42.748;12.732;2023-04-26T14:06:35;97737.34;;;19.94;29.65
36242;BME280;22283;42.748;12.732;2023-04-26T14:11:36;97744.28;;;19.88;28.56
36242;BME280;22283;42.748;12.732;2023-04-26T14:16:36;97747.56;;;19.76;28.11
36242;BME280;22283;42.748;12.732;2023-04-26T14:21:37;97748.09;;;19.94;29.08
36242;BME280;22283;42.748;12.732;2023-04-26T14:26:38;97743.75;;;19.93;28.53
36242;BME280;22283;42.748;12.732;2023-04-26T14:31:39;97748.38;;;19.99;30.00
36242;BME280;22283;42.748;12.732;2023-04-26T14:36:40;97745.88;;;19.98;28.32
36242;BME280;22283;42.748;12.732;2023-04-26T14:41:41;97736.78;;;19.84;27.12
36242;BME280;22283;42.748;12.732;2023-04-26T14:46:41;97750.91;;;19.78;26.99
36242;BME280;22283;42.748;12.732;2023-04-26T14:51:42;97738.19;;;19.72;28.38
36242;BME280;22283;42.748;12.732;2023-04-26T14:56:43;97729.31;;;19.48;27.87
36242;BME280;22283;42.748;12.732;2023-04-26T15:01:44;97738.09;;;19.65;29.33
36242;BME280;22283;42.748;12.732;2023-04-26T15:06:44;97739.59;;;19.59;28.22
36242;BME280;22283;42.748;12.732;2023-04-26T15:11:45;97739.31;;;19.54;28.46
36242;BME280;22283;42.748;12.732;2023-04-26T15:23:16;97734.53;;;19.41;27.95
36242;BME280;22283;42.748;12.732;2023-04-26T15:28:17;97737.75;;;19.37;28.51
36242;BME280;22283;42.748;12.732;2023-04-26T15:33:18;97728.38;;;19.33;28.41
36242;BME280;22283;42.748;12.732;2023-04-26T15:38:19;97732.69;;;19.42;27.32
36242;BME280;22283;42.748;12.732;2023-04-26T15:43:19;97731.38;;;19.38;27.79
36242;BME280;22283;42.748;12.732;2023-04-26T15:48:20;97729.75;;;19.29;27.61
36242;BME280;22283;42.748;12.732;2023-04-26T15:53:21;97723.84;;;19.33;29.28
36242;BME280;22283;42.748;12.732;2023-04-26T15:58:23;97729.09;;;19.27;28.37
36242;BME280;22283;42.748;12.732;2023-04-26T16:03:23;97739.91;;;19.10;29.43
36242;BME280;22283;42.748;12.732;2023-04-26T16:08:24;97734.59;;;19.02;28.15
36242;BME280;22283;42.748;12.732;2023-04-26T16:13:25;97732.97;;;18.93;28.62
36242;BME280;22283;42.748;12.732;2023-04-26T16:18:26;97733.28;;;18.98;29.27
36242;BME280;22283;42.748;12.732;2023-04-26T16:23:27;97732.97;;;18.93;29.60
36242;BME280;22283;42.748;12.732;2023-04-26T16:28:28;97728.63;;;18.84;29.99
36242;BME280;22283;42.748;12.732;2023-04-26T16:33:29;97727.97;;;18.82;29.20
36242;BME280;22283;42.748;12.732;2023-04-26T16:38:30;97733.00;;;18.77;29.48
36242;BME280;22283;42.748;12.732;2023-04-26T16:43:30;97740.22;;;18.68;30.19
36242;BME280;22283;42.748;12.732;2023-04-26T16:48:36;97738.75;;;18.65;30.67
36242;BME280;22283;42.748;12.732;2023-04-26T16:53:37;97749.28;;;18.59;30.60
36242;BME280;22283;42.748;12.732;2023-04-26T16:58:38;97739.94;;;18.55;30.69
36242;BME280;22283;42.748;12.732;2023-04-26T17:03:39;97751.19;;;18.42;31.05
36242;BME280;22283;42.748;12.732;2023-04-26T17:08:40;97752.38;;;18.31;32.04
36242;BME280;22283;42.748;12.732;2023-04-26T17:13:41;97754.06;;;18.24;32.08
36242;BME280;22283;42.748;12.732;2023-04-26T17:18:44;97753.22;;;18.15;31.97
36242;BME280;22283;42.748;12.732;2023-04-26T17:23:45;97757.91;;;18.05;31.28
36242;BME280;22283;42.748;12.732;2023-04-26T17:28:46;97769.50;;;17.98;32.39
36242;BME280;22283;42.748;12.732;2023-04-26T17:33:46;97778.69;;;17.79;32.48
36242;BME280;22283;42.748;12.732;2023-04-26T17:38:47;97784.97;;;17.61;32.55
36242;BME280;22283;42.748;12.732;2023-04-26T17:43:48;97794.03;;;17.18;34.54
36242;BME280;22283;42.748;12.732;2023-04-26T17:48:48;97791.63;;;16.64;37.03
36242;BME280;22283;42.748;12.732;2023-04-26T17:53:49;97798.31;;;16.16;38.87
36242;BME280;22283;42.748;12.732;2023-04-26T17:58:50;97787.03;;;15.51;41.30
36242;BME280;22283;42.748;12.732;2023-04-26T18:03:50;97782.84;;;15.03;42.40
36242;BME280;22283;42.748;12.732;2023-04-26T18:08:51;97791.44;;;14.69;43.94
36242;BME280;22283;42.748;12.732;2023-04-26T18:13:52;97810.53;;;14.45;45.13
36242;BME280;22283;42.748;12.732;2023-04-26T18:18:52;97806.25;;;14.15;46.38
36242;BME280;22283;42.748;12.732;2023-04-26T18:23:53;97817.31;;;14.01;47.33
36242;BME280;22283;42.748;12.732;2023-04-26T18:28:54;97828.38;;;13.67;48.14
36242;BME280;22283;42.748;12.732;2023-04-26T18:33:54;97837.59;;;13.44;48.90
36242;BME280;22283;42.748;12.732;2023-04-26T18:38:55;97825.63;;;13.19;49.20
36242;BME280;22283;42.748;12.732;2023-04-26T18:43:55;97835.22;;;13.00;49.69
36242;BME280;22283;42.748;12.732;2023-04-26T18:48:56;97845.34;;;12.86;49.73
36242;BME280;22283;42.748;12.732;2023-04-26T18:53:57;97835.69;;;12.75;49.62
36242;BME280;22283;42.748;12.732;2023-04-26T18:58:58;97839.78;;;12.89;48.92
36242;BME280;22283;42.748;12.732;2023-04-26T19:03:58;97852.84;;;12.50;50.34
36242;BME280;22283;42.748;12.732;2023-04-26T19:08:59;97848.47;;;12.18;50.67
36242;BME280;22283;42.748;12.732;2023-04-26T19:14:00;97852.59;;;12.11;49.81
36242;BME280;22283;42.748;12.732;2023-04-26T19:19:00;97860.53;;;12.11;50.29
36242;BME280;22283;42.748;12.732;2023-04-26T19:24:02;97866.38;;;12.05;50.22
36242;BME280;22283;42.748;12.732;2023-04-26T19:29:03;97872.94;;;11.90;50.75
36242;BME280;22283;42.748;12.732;2023-04-26T19:34:05;97884.53;;;11.77;50.30
36242;BME280;22283;42.748;12.732;2023-04-26T19:39:06;97892.50;;;11.66;50.67
36242;BME280;22283;42.748;12.732;2023-04-26T19:44:08;97897.56;;;11.69;50.85
36242;BME280;22283;42.748;12.732;2023-04-26T19:49:08;97896.34;;;11.85;50.56
36242;BME280;22283;42.748;12.732;2023-04-26T19:54:09;97900.25;;;11.58;51.56
36242;BME280;22283;42.748;12.732;2023-04-26T19:59:10;97910.88;;;11.36;52.51
36242;BME280;22283;42.748;12.732;2023-04-26T20:04:13;97909.19;;;11.12;52.45
36242;BME280;22283;42.748;12.732;2023-04-26T20:09:14;97911.38;;;11.29;51.39
36242;BME280;22283;42.748;12.732;2023-04-26T20:14:16;97910.09;;;11.56;50.88
36242;BME280;22283;42.748;12.732;2023-04-26T20:19:17;97895.88;;;11.68;50.04
36242;BME280;22283;42.748;12.732;2023-04-26T20:24:17;97910.09;;;11.67;50.41
36242;BME280;22283;42.748;12.732;2023-04-26T20:29:18;97909.66;;;11.40;51.51
36242;BME280;22283;42.748;12.732;2023-04-26T20:34:19;97904.88;;;11.22;52.85
36242;BME280;22283;42.748;12.732;2023-04-26T20:39:20;97911.25;;;10.97;53.38
36242;BME280;22283;42.748;12.732;2023-04-26T20:44:21;97930.72;;;10.96;55.10
36242;BME280;22283;42.748;12.732;2023-04-26T20:49:22;97928.69;;;10.77;55.80
36242;BME280;22283;42.748;12.732;2023-04-26T20:54:22;97937.09;;;10.71;56.17
36242;BME280;22283;42.748;12.732;2023-04-26T20:59:23;97929.13;;;10.60;55.99
36242;BME280;22283;42.748;12.732;2023-04-26T21:04:24;97929.97;;;10.61;54.81
36242;BME280;22283;42.748;12.732;2023-04-26T21:09:25;97930.16;;;10.81;54.49
36242;BME280;22283;42.748;12.732;2023-04-26T21:14:26;97926.75;;;10.79;54.73
36242;BME280;22283;42.748;12.732;2023-04-26T21:19:27;97936.13;;;10.83;54.50
36242;BME280;22283;42.748;12.732;2023-04-26T21:24:27;97956.34;;;10.73;56.71
36242;BME280;22283;42.748;12.732;2023-04-26T21:29:28;97946.53;;;10.51;58.16
36242;BME280;22283;42.748;12.732;2023-04-26T21:34:29;97964.41;;;10.37;58.02
36242;BME280;22283;42.748;12.732;2023-04-26T21:39:30;97974.94;;;10.25;59.25
36242;BME280;22283;42.748;12.732;2023-04-26T21:44:31;97981.28;;;9.99;61.66
36242;BME280;22283;42.748;12.732;2023-04-26T21:49:31;98002.06;;;9.79;62.59
36242;BME280;22283;42.748;12.732;2023-04-26T21:54:32;98004.22;;;9.74;62.38
36242;BME280;22283;42.748;12.732;2023-04-26T21:59:33;98015.97;;;9.94;60.45
36242;BME280;22283;42.748;12.732;2023-04-26T22:04:33;98017.88;;;10.16;58.95
36242;BME280;22283;42.748;12.732;2023-04-26T22:09:34;98030.31;;;10.40;58.53
36242;BME280;22283;42.748;12.732;2023-04-26T22:14:35;98046.72;;;10.56;56.70
36242;BME280;22283;42.748;12.732;2023-04-26T22:19:35;98057.78;;;10.26;63.34
36242;BME280;22283;42.748;12.732;2023-04-26T22:24:36;98055.09;;;9.89;66.65
36242;BME280;22283;42.748;12.732;2023-04-26T22:29:37;98062.13;;;9.52;70.48
36242;BME280;22283;42.748;12.732;2023-04-26T22:34:37;98054.03;;;9.17;71.11
36242;BME280;22283;42.748;12.732;2023-04-26T22:39:38;98058.66;;;9.13;71.50
36242;BME280;22283;42.748;12.732;2023-04-26T22:44:39;98050.97;;;9.35;69.62
36242;BME280;22283;42.748;12.732;2023-04-26T22:49:40;98052.63;;;9.49;69.25
36242;BME280;22283;42.748;12.732;2023-04-26T22:59:41;98059.63;;;9.50;69.24
36242;BME280;22283;42.748;12.732;2023-04-26T23:04:42;98072.16;;;9.72;67.95
36242;BME280;22283;42.748;12.732;2023-04-26T23:09:43;98048.00;;;9.27;69.69
36242;BME280;22283;42.748;12.732;2023-04-26T23:14:44;98052.00;;;9.33;69.70
36242;BME280;22283;42.748;12.732;2023-04-26T23:19:47;98074.41;;;9.40;70.16
36242;BME280;22283;42.748;12.732;2023-04-26T23:24:47;98076.94;;;9.16;72.29
36242;BME280;22283;42.748;12.732;2023-04-26T23:29:48;98072.88;;;8.98;73.57
36242;BME280;22283;42.748;12.732;2023-04-26T23:34:49;98068.44;;;8.85;74.95
36242;BME280;22283;42.748;12.732;2023-04-26T23:39:50;98075.00;;;8.80;75.57
36242;BME280;22283;42.748;12.732;2023-04-26T23:44:51;98063.59;;;8.79;75.53
36242;BME280;22283;42.748;12.732;2023-04-26T23:49:52;98063.53;;;8.67;76.53
36242;BME280;22283;42.748;12.732;2023-04-26T23:54:52;98053.28;;;8.49;77.89
36242;BME280;22283;42.748;12.732;2023-04-26T23:59:53;98066.56;;;8.48;78.41
